Time;durP1;ratioP1;P1;durP2;ratioP2;P2;SDS_P1;SDS_P2;PMS_P1;PMS_P2;Temp;Humidity;BMP_temperature;BMP_pressure;BME280_temperature;BME280_humidity;BME280_pressure;Samples;Min_cycle;Max_cycle;Signal;HPM_P1;HPM_P2
2021/09/11 00:00:27;;;;;;;5.68;0.40;;;22.60;63.20;;;;;;4929924;29;20071;-46
2021/09/11 00:02:55;;;;;;;1.58;0.38;;;22.60;63.30;;;;;;4930952;29;20046;-49
2021/09/11 00:05:23;;;;;;;1.50;0.45;;;22.60;63.40;;;;;;4927199;29;20035;-50
2021/09/11 00:07:51;;;;;;;0.40;0.30;;;22.60;63.30;;;;;;4930007;29;20075;-53
2021/09/11 00:10:18;;;;;;;0.52;0.52;;;22.60;63.20;;;;;;4930579;29;20167;-51
2021/09/11 00:12:46;;;;;;;0.20;0.10;;;22.50;63.10;;;;;;4924580;29;20453;-49
2021/09/11 00:15:15;;;;;;;0.20;0.20;;;22.50;63.20;;;;;;4930110;29;20046;-49
2021/09/11 00:17:42;;;;;;;1.05;0.30;;;22.50;63.10;;;;;;4930053;29;20508;-50
2021/09/11 00:20:13;;;;;;;0.73;0.20;;;22.50;63.20;;;;;;4931441;29;20043;-49
2021/09/11 00:22:40;;;;;;;0.10;0.10;;;22.50;63.10;;;;;;4929684;29;20457;-52
2021/09/11 00:25:08;;;;;;;4.03;0.43;;;22.50;63.20;;;;;;4927697;29;20604;-53
2021/09/11 00:27:35;;;;;;;5.03;1.70;;;22.50;63.10;;;;;;4930320;29;20050;-52
2021/09/11 00:30:02;;;;;;;0.60;0.30;;;22.50;63.30;;;;;;4930241;29;20385;-49
2021/09/11 00:32:29;;;;;;;2.60;0.30;;;22.50;63.40;;;;;;4930813;29;20044;-52
2021/09/11 00:34:56;;;;;;;0.45;0.20;;;22.50;63.00;;;;;;4930040;29;20077;-49
2021/09/11 00:37:25;;;;;;;3.30;0.40;;;22.50;62.80;;;;;;4928675;29;20050;-47
2021/09/11 00:39:52;;;;;;;2.00;0.30;;;22.50;62.80;;;;;;4930379;29;20509;-50
2021/09/11 00:42:19;;;;;;;3.70;0.40;;;22.40;62.70;;;;;;4930271;29;20046;-48
2021/09/11 00:44:46;;;;;;;1.05;0.20;;;22.40;62.60;;;;;;4929684;29;20040;-50
2021/09/11 00:47:13;;;;;;;0.30;0.30;;;22.40;62.50;;;;;;4927166;29;20081;-47
2021/09/11 00:49:40;;;;;;;1.85;0.20;;;22.40;62.60;;;;;;4929291;29;20040;-49
2021/09/11 00:52:08;;;;;;;0.22;0.22;;;22.40;62.60;;;;;;4925193;29;20122;-49
2021/09/11 00:54:36;;;;;;;2.10;0.20;;;22.40;62.60;;;;;;4928693;29;20072;-46
2021/09/11 00:57:05;;;;;;;1.95;0.20;;;22.30;62.50;;;;;;4929858;29;20047;-48
2021/09/11 00:59:32;;;;;;;0.30;0.10;;;22.30;62.40;;;;;;4929997;29;20052;-52
2021/09/11 01:01:59;;;;;;;0.30;0.20;;;22.30;62.30;;;;;;4930994;29;20074;-52
2021/09/11 01:04:27;;;;;;;0.77;0.10;;;22.30;62.30;;;;;;4930224;29;20063;-49
2021/09/11 01:06:56;;;;;;;1.85;0.25;;;22.30;62.20;;;;;;4929910;29;20043;-48
2021/09/11 01:09:26;;;;;;;0.90;0.60;;;22.30;62.10;;;;;;4929751;29;20039;-48
2021/09/11 01:11:54;;;;;;;1.80;0.20;;;22.30;62.10;;;;;;4929925;29;20231;-47
2021/09/11 01:14:21;;;;;;;0.70;0.30;;;22.20;61.90;;;;;;4930427;29;20067;-51
2021/09/11 01:16:48;;;;;;;0.20;0.10;;;22.20;61.80;;;;;;4930253;29;20397;-49
2021/09/11 01:19:15;;;;;;;3.85;0.40;;;22.20;61.60;;;;;;4929233;29;20091;-49
2021/09/11 01:21:43;;;;;;;1.20;0.15;;;22.20;61.80;;;;;;4930103;29;20499;-48
2021/09/11 01:24:11;;;;;;;0.28;0.20;;;22.10;61.60;;;;;;4925115;29;20386;-48
2021/09/11 01:26:38;;;;;;;2.60;0.30;;;22.20;61.60;;;;;;4928540;29;20152;-47
2021/09/11 01:29:09;;;;;;;0.55;0.20;;;22.10;61.60;;;;;;4931006;29;20039;-49
2021/09/11 01:31:36;;;;;;;0.57;0.28;;;22.10;61.70;;;;;;4929803;29;20044;-50
2021/09/11 01:34:03;;;;;;;4.15;0.30;;;22.10;62.00;;;;;;4932461;29;20055;-47
2021/09/11 01:36:31;;;;;;;0.28;0.22;;;22.10;61.90;;;;;;4933391;29;20123;-51
2021/09/11 01:38:58;;;;;;;0.20;0.20;;;22.10;61.90;;;;;;4932472;29;20040;-49
2021/09/11 01:41:26;;;;;;;0.38;0.38;;;22.10;61.80;;;;;;4933914;29;20564;-50
2021/09/11 01:43:53;;;;;;;1.70;0.20;;;22.00;61.90;;;;;;4933153;29;20127;-49
2021/09/11 01:46:20;;;;;;;2.70;0.30;;;22.00;61.80;;;;;;4932833;29;20050;-50
2021/09/11 01:48:47;;;;;;;0.20;0.20;;;22.00;61.80;;;;;;4931992;29;20036;-50
2021/09/11 01:51:14;;;;;;;0.95;0.43;;;22.00;62.00;;;;;;4933155;29;20043;-45
2021/09/11 01:53:41;;;;;;;0.70;0.20;;;22.00;61.90;;;;;;4932907;29;20054;-51
2021/09/11 01:56:08;;;;;;;0.17;0.10;;;22.00;62.00;;;;;;4934187;29;20052;-48
2021/09/11 01:58:36;;;;;;;0.90;0.20;;;22.00;61.90;;;;;;4932710;29;20051;-51
2021/09/11 02:01:03;;;;;;;0.30;0.20;;;22.00;61.70;;;;;;4933371;29;20051;-47
2021/09/11 02:03:30;;;;;;;0.65;0.10;;;22.00;61.60;;;;;;4929589;29;20044;-47
2021/09/11 02:05:57;;;;;;;1.98;0.30;;;21.90;61.50;;;;;;4922959;29;20047;-52
2021/09/11 02:08:24;;;;;;;2.13;0.20;;;21.90;61.50;;;;;;4932725;29;20047;-47
2021/09/11 02:10:52;;;;;;;1.00;0.20;;;21.90;61.50;;;;;;4928902;29;20126;-50
2021/09/11 02:13:19;;;;;;;0.75;0.20;;;21.90;61.40;;;;;;4930638;29;20516;-49
2021/09/11 02:15:48;;;;;;;0.50;0.50;;;21.90;61.30;;;;;;4932038;29;20071;-47
2021/09/11 02:18:15;;;;;;;0.63;0.13;;;21.90;61.30;;;;;;4932656;29;20512;-48
2021/09/11 02:20:42;;;;;;;1.10;0.22;;;21.80;61.20;;;;;;4930918;29;20048;-47
2021/09/11 02:23:08;;;;;;;8.45;0.45;;;21.80;61.00;;;;;;4918621;29;20048;-50
2021/09/11 02:25:38;;;;;;;0.22;0.20;;;21.80;60.90;;;;;;4930998;29;20051;-47
2021/09/11 02:28:05;;;;;;;0.32;0.25;;;21.80;60.80;;;;;;4926840;29;20043;-47
2021/09/11 02:30:32;;;;;;;1.38;0.57;;;21.80;60.70;;;;;;4932243;29;20032;-49
2021/09/11 02:33:00;;;;;;;1.25;0.17;;;21.80;60.60;;;;;;4927405;29;20529;-49
2021/09/11 02:35:27;;;;;;;0.50;0.20;;;21.80;60.40;;;;;;4932551;29;20412;-50
2021/09/11 02:37:54;;;;;;;1.88;0.13;;;21.70;60.40;;;;;;4933439;29;20134;-49
2021/09/11 02:40:22;;;;;;;0.20;0.10;;;21.70;60.30;;;;;;4931949;29;20146;-50
2021/09/11 02:42:49;;;;;;;0.30;0.10;;;21.70;60.20;;;;;;4931781;29;20046;-48
2021/09/11 02:45:16;;;;;;;1.45;0.10;;;21.70;60.10;;;;;;4931277;29;20047;-48
2021/09/11 02:47:43;;;;;;;0.82;0.20;;;21.70;60.00;;;;;;4930908;29;20132;-51
2021/09/11 02:50:11;;;;;;;1.00;0.13;;;21.70;59.90;;;;;;4933243;29;20048;-50
2021/09/11 02:52:38;;;;;;;2.38;0.90;;;21.70;59.90;;;;;;4931198;29;20043;-51
2021/09/11 02:55:07;;;;;;;0.28;0.10;;;21.70;59.80;;;;;;4931470;29;20035;-53
2021/09/11 02:57:34;;;;;;;0.50;0.10;;;21.60;59.90;;;;;;4931378;29;20083;-51
2021/09/11 03:00:01;;;;;;;1.33;0.30;;;21.60;60.00;;;;;;4931492;29;20050;-52
2021/09/11 03:02:28;;;;;;;0.10;0.10;;;21.60;60.00;;;;;;4932134;29;20054;-52
2021/09/11 03:04:54;;;;;;;0.68;0.35;;;21.60;60.00;;;;;;4932894;29;20138;-49
2021/09/11 03:07:23;;;;;;;0.85;0.22;;;21.60;60.20;;;;;;4931453;29;20069;-47
2021/09/11 03:09:50;;;;;;;2.95;0.13;;;21.60;60.20;;;;;;4931167;29;20044;-47
2021/09/11 03:12:17;;;;;;;0.40;0.25;;;21.60;60.20;;;;;;4931836;29;20043;-46
2021/09/11 03:14:44;;;;;;;1.13;0.30;;;21.50;60.20;;;;;;4931291;29;20048;-47
2021/09/11 03:17:11;;;;;;;5.00;0.47;;;21.50;60.20;;;;;;4933164;29;20044;-51
2021/09/11 03:19:38;;;;;;;2.90;0.10;;;21.50;60.20;;;;;;4930156;29;20048;-49
2021/09/11 03:22:05;;;;;;;3.50;0.43;;;21.50;60.10;;;;;;4925803;29;20048;-51
2021/09/11 03:24:34;;;;;;;1.65;0.28;;;21.50;60.00;;;;;;4917026;29;20122;-48
2021/09/11 03:27:01;;;;;;;0.80;0.52;;;21.50;60.10;;;;;;4931629;29;20043;-47
2021/09/11 03:29:28;;;;;;;1.98;0.20;;;21.50;60.00;;;;;;4931464;29;20043;-50
2021/09/11 03:31:55;;;;;;;0.40;0.10;;;21.50;60.00;;;;;;4930910;29;20056;-45
2021/09/11 03:34:22;;;;;;;0.25;0.13;;;21.40;60.00;;;;;;4931168;29;20047;-48
2021/09/11 03:36:49;;;;;;;0.70;0.20;;;21.40;60.00;;;;;;4931181;29;20122;-47
2021/09/11 03:39:16;;;;;;;0.10;0.10;;;21.40;60.10;;;;;;4931088;29;20494;-49
2021/09/11 03:41:44;;;;;;;0.70;0.40;;;21.40;60.10;;;;;;4931231;29;20757;-49
2021/09/11 03:44:11;;;;;;;0.40;0.40;;;21.40;60.00;;;;;;4931936;29;20130;-48
2021/09/11 03:46:38;;;;;;;1.00;0.10;;;21.30;60.00;;;;;;4931068;29;20075;-48
2021/09/11 03:49:05;;;;;;;0.60;0.13;;;21.30;60.40;;;;;;4931060;29;20439;-51
2021/09/11 03:51:34;;;;;;;1.45;0.10;;;21.30;60.40;;;;;;4930547;29;20067;-52
2021/09/11 03:54:01;;;;;;;1.88;0.20;;;21.30;61.00;;;;;;4930301;29;20424;-47
2021/09/11 03:56:29;;;;;;;1.23;0.20;;;21.30;60.40;;;;;;4930461;29;20114;-51
2021/09/11 03:58:57;;;;;;;2.05;0.45;;;21.20;60.30;;;;;;4932002;29;20134;-49
2021/09/11 04:01:24;;;;;;;1.15;0.17;;;21.20;60.30;;;;;;4927705;29;20060;-51
2021/09/11 04:03:51;;;;;;;1.35;0.20;;;21.20;60.40;;;;;;4924076;29;20135;-52
2021/09/11 04:06:18;;;;;;;0.10;0.10;;;21.20;60.50;;;;;;4927107;29;20075;-47
2021/09/11 04:08:45;;;;;;;3.17;0.43;;;21.20;60.60;;;;;;4930427;29;20054;-51
2021/09/11 04:11:12;;;;;;;0.77;0.20;;;21.10;60.70;;;;;;4917277;29;20532;-48
2021/09/11 04:13:39;;;;;;;0.90;0.20;;;21.10;60.60;;;;;;4929984;29;20460;-48
2021/09/11 04:16:08;;;;;;;0.73;0.10;;;21.10;60.60;;;;;;4928516;29;20165;-49
2021/09/11 04:18:35;;;;;;;1.58;0.20;;;21.10;60.60;;;;;;4930376;29;20050;-48
2021/09/11 04:21:02;;;;;;;0.85;0.28;;;21.10;60.60;;;;;;4925830;29;20043;-48
2021/09/11 04:23:29;;;;;;;0.68;0.50;;;21.10;60.50;;;;;;4930570;29;20130;-46
2021/09/11 04:25:56;;;;;;;1.05;0.22;;;21.10;60.50;;;;;;4927193;29;20442;-49
2021/09/11 04:28:23;;;;;;;2.42;0.52;;;21.00;60.40;;;;;;4929295;29;20047;-47
2021/09/11 04:30:50;;;;;;;1.27;0.20;;;21.00;60.40;;;;;;4926992;29;20115;-49
2021/09/11 04:33:18;;;;;;;0.10;0.10;;;21.00;60.50;;;;;;4930389;29;20036;-46
2021/09/11 04:35:45;;;;;;;1.35;1.25;;;21.00;60.60;;;;;;4928646;29;20114;-52
2021/09/11 04:38:12;;;;;;;0.90;0.20;;;21.00;60.50;;;;;;4929960;29;20131;-50
2021/09/11 04:40:39;;;;;;;0.98;0.20;;;21.00;60.60;;;;;;4930162;29;20036;-50
2021/09/11 04:43:07;;;;;;;3.15;0.10;;;20.90;61.10;;;;;;4930085;29;20036;-50
2021/09/11 04:45:34;;;;;;;0.43;0.20;;;20.90;60.50;;;;;;4930007;29;20044;-47
2021/09/11 04:48:01;;;;;;;0.40;0.10;;;20.90;60.60;;;;;;4929914;29;20509;-51
2021/09/11 04:50:30;;;;;;;0.20;0.20;;;20.90;60.70;;;;;;4930184;29;20058;-50
2021/09/11 04:52:57;;;;;;;5.13;0.20;;;20.80;60.70;;;;;;4931276;29;20055;-47
2021/09/11 04:55:25;;;;;;;0.57;0.20;;;20.80;60.80;;;;;;4929702;29;20046;-51
2021/09/11 04:57:52;;;;;;;1.90;0.20;;;20.80;60.80;;;;;;4926394;29;20047;-51
2021/09/11 05:00:19;;;;;;;0.30;0.22;;;20.80;60.90;;;;;;4929893;29;20099;-51
2021/09/11 05:02:46;;;;;;;1.92;0.80;;;20.80;61.00;;;;;;4917133;29;20193;-55
2021/09/11 05:05:13;;;;;;;1.38;0.20;;;20.70;61.10;;;;;;4931130;29;20054;-52
2021/09/11 05:07:41;;;;;;;0.20;0.17;;;20.70;61.10;;;;;;4932356;29;20048;-54
2021/09/11 05:10:09;;;;;;;0.73;0.20;;;20.70;61.10;;;;;;4934026;29;20106;-53
2021/09/11 05:12:36;;;;;;;0.50;0.43;;;20.70;61.20;;;;;;4929569;29;20103;-52
2021/09/11 05:15:03;;;;;;;0.95;0.90;;;20.60;61.20;;;;;;4927096;29;20127;-51
2021/09/11 05:17:30;;;;;;;0.30;0.20;;;20.60;61.30;;;;;;4933685;29;20389;-53
2021/09/11 05:19:58;;;;;;;0.30;0.10;;;20.60;61.40;;;;;;4934104;29;20051;-49
2021/09/11 05:22:25;;;;;;;0.30;0.30;;;20.60;61.40;;;;;;4928425;29;20535;-50
2021/09/11 05:24:53;;;;;;;0.63;0.30;;;20.60;61.50;;;;;;4924955;29;20739;-55
2021/09/11 05:27:20;;;;;;;0.38;0.28;;;20.50;61.60;;;;;;4926935;29;20035;-53
2021/09/11 05:29:47;;;;;;;0.25;0.20;;;20.50;61.70;;;;;;4925687;29;20044;-49
2021/09/11 05:32:14;;;;;;;1.90;0.10;;;20.50;61.70;;;;;;4924211;29;20457;-50
2021/09/11 05:34:41;;;;;;;0.95;0.47;;;20.50;61.70;;;;;;4923179;29;20040;-49
2021/09/11 05:37:08;;;;;;;1.35;0.30;;;20.50;61.90;;;;;;4923918;29;20037;-52
2021/09/11 05:39:35;;;;;;;3.60;0.45;;;20.50;61.90;;;;;;4924092;29;20127;-50
2021/09/11 05:42:04;;;;;;;1.00;0.32;;;20.50;62.00;;;;;;4926500;29;20036;-52
2021/09/11 05:44:31;;;;;;;2.90;0.20;;;20.50;62.00;;;;;;4922050;29;20043;-51
2021/09/11 05:46:58;;;;;;;0.68;0.45;;;20.50;61.90;;;;;;4932294;29;20044;-51
2021/09/11 05:49:26;;;;;;;4.85;0.50;;;20.50;61.90;;;;;;4932502;29;20055;-53
2021/09/11 05:51:54;;;;;;;4.32;0.75;;;20.50;63.80;;;;;;4933822;29;20484;-49
2021/09/11 05:54:21;;;;;;;4.43;0.57;;;20.60;64.40;;;;;;4933113;29;20755;-51
2021/09/11 05:56:48;;;;;;;5.78;0.70;;;20.80;64.60;;;;;;4932759;29;20047;-48
2021/09/11 05:59:16;;;;;;;4.60;0.82;;;21.00;67.10;;;;;;4934223;29;20047;-47
2021/09/11 06:01:43;;;;;;;16.77;1.60;;;21.20;68.90;;;;;;4927293;29;20036;-45
2021/09/11 06:04:10;;;;;;;15.32;1.13;;;21.40;69.60;;;;;;4930994;29;20032;-46
2021/09/11 06:06:37;;;;;;;11.00;1.10;;;21.60;70.70;;;;;;4930702;29;20048;-47
2021/09/11 06:09:05;;;;;;;13.45;1.73;;;21.80;70.20;;;;;;4933096;29;20526;-47
2021/09/11 06:11:32;;;;;;;16.45;1.08;;;22.00;70.00;;;;;;4933327;29;20087;-46
2021/09/11 06:13:59;;;;;;;6.85;1.35;;;22.20;69.80;;;;;;4933345;29;20067;-47
2021/09/11 06:16:27;;;;;;;7.50;1.05;;;22.30;69.20;;;;;;4932826;29;20110;-48
2021/09/11 06:18:54;;;;;;;4.93;1.55;;;22.50;68.80;;;;;;4931559;29;20035;-46
2021/09/11 06:21:21;;;;;;;7.60;0.52;;;22.70;68.30;;;;;;4932996;29;20043;-47
2021/09/11 06:23:48;;;;;;;4.93;0.40;;;22.80;67.90;;;;;;4917675;29;20035;-49
2021/09/11 06:26:15;;;;;;;2.17;0.20;;;22.90;67.40;;;;;;4933774;29;20119;-50
2021/09/11 06:28:42;;;;;;;4.15;0.68;;;23.00;66.80;;;;;;4930329;29;20103;-50
2021/09/11 06:31:09;;;;;;;7.53;1.67;;;23.20;66.40;;;;;;4932210;29;20063;-46
2021/09/11 06:33:38;;;;;;;2.05;0.20;;;23.30;66.00;;;;;;4929839;29;20054;-47
2021/09/11 06:36:10;;;;;;;3.83;0.50;;;23.40;65.60;;;;;;4932616;29;20396;-48
2021/09/11 06:38:37;;;;;;;4.05;0.60;;;23.50;65.20;;;;;;4932278;29;20068;-47
2021/09/11 06:41:04;;;;;;;4.93;0.45;;;23.60;64.70;;;;;;4933772;29;20036;-46
2021/09/11 06:43:31;;;;;;;5.00;0.40;;;23.60;64.30;;;;;;4932525;29;20048;-45
2021/09/11 06:45:58;;;;;;;1.65;0.28;;;23.70;63.90;;;;;;4932109;29;20416;-48
2021/09/11 06:48:25;;;;;;;3.72;0.30;;;23.80;63.60;;;;;;4931489;29;20050;-45
2021/09/11 06:50:55;;;;;;;3.20;0.45;;;23.90;63.30;;;;;;4932093;29;20036;-47
2021/09/11 06:53:22;;;;;;;1.65;0.10;;;24.00;62.90;;;;;;4932983;29;20058;-46
2021/09/11 06:55:50;;;;;;;1.45;0.20;;;24.10;62.70;;;;;;4932642;29;20489;-46
2021/09/11 06:58:17;;;;;;;1.33;0.57;;;24.10;62.90;;;;;;4931843;29;20574;-46
2021/09/11 07:00:45;;;;;;;3.10;0.20;;;24.20;62.10;;;;;;4931377;29;20500;-47
2021/09/11 07:03:12;;;;;;;2.25;0.20;;;24.30;61.90;;;;;;4932080;29;20126;-46
2021/09/11 07:05:39;;;;;;;0.35;0.20;;;24.30;61.60;;;;;;4931067;29;20935;-49
2021/09/11 07:08:07;;;;;;;1.08;0.10;;;24.40;61.40;;;;;;4932653;29;20048;-47
2021/09/11 07:10:35;;;;;;;0.80;0.10;;;24.50;61.20;;;;;;4929379;29;20047;-46
2021/09/11 07:13:02;;;;;;;2.10;0.60;;;24.50;60.90;;;;;;4931821;29;20103;-48
2021/09/11 07:15:29;;;;;;;1.38;0.30;;;24.50;60.60;;;;;;4931174;29;20040;-47
2021/09/11 07:17:56;;;;;;;1.50;0.70;;;24.60;60.50;;;;;;4931611;29;20049;-49
2021/09/11 07:20:24;;;;;;;0.43;0.10;;;24.60;60.20;;;;;;4931572;29;20055;-49
2021/09/11 07:22:51;;;;;;;1.55;0.38;;;24.70;60.00;;;;;;4932439;29;20099;-47
2021/09/11 07:25:20;;;;;;;1.05;0.25;;;24.70;59.90;;;;;;4931020;29;20048;-48
2021/09/11 07:27:47;;;;;;;1.38;0.30;;;24.80;59.80;;;;;;4931128;29;20605;-47
2021/09/11 07:30:14;;;;;;;0.20;0.20;;;24.80;59.50;;;;;;4929801;29;20036;-47
2021/09/11 07:32:41;;;;;;;0.28;0.10;;;24.80;59.40;;;;;;4931267;29;20112;-48
2021/09/11 07:35:09;;;;;;;0.82;0.20;;;24.90;59.20;;;;;;4932577;29;20472;-49
2021/09/11 07:37:36;;;;;;;0.20;0.10;;;24.90;59.00;;;;;;4931055;29;20058;-48
2021/09/11 07:40:04;;;;;;;0.63;0.13;;;25.00;59.40;;;;;;4931592;29;20044;-47
2021/09/11 07:42:32;;;;;;;0.73;0.10;;;25.00;58.70;;;;;;4930951;29;20138;-47
2021/09/11 07:45:00;;;;;;;0.32;0.17;;;25.10;58.50;;;;;;4930597;29;20127;-48
2021/09/11 07:47:27;;;;;;;1.10;0.15;;;25.10;58.40;;;;;;4931577;29;20102;-47
2021/09/11 07:49:54;;;;;;;2.45;0.28;;;25.10;58.20;;;;;;4931364;29;20055;-48
2021/09/11 07:52:21;;;;;;;0.57;0.10;;;25.20;58.10;;;;;;4930997;29;20038;-46
2021/09/11 07:54:49;;;;;;;1.40;0.10;;;25.20;58.00;;;;;;4930845;29;20058;-47
2021/09/11 07:57:16;;;;;;;2.30;0.20;;;25.20;57.80;;;;;;4927765;29;20115;-47
2021/09/11 07:59:44;;;;;;;0.20;0.10;;;25.30;57.70;;;;;;4931176;29;26032;-47
2021/09/11 08:02:11;;;;;;;0.60;0.10;;;25.30;57.50;;;;;;4932099;29;20118;-47
2021/09/11 08:04:38;;;;;;;2.22;0.55;;;25.30;57.50;;;;;;4931238;29;20052;-48
2021/09/11 08:07:05;;;;;;;0.20;0.10;;;25.30;57.30;;;;;;4930925;29;20044;-47
2021/09/11 08:09:32;;;;;;;0.90;0.00;;;25.30;57.10;;;;;;4926137;29;20413;-48
2021/09/11 08:11:59;;;;;;;0.00;0.00;;;25.40;57.00;;;;;;4930789;29;20039;-48
2021/09/11 08:14:26;;;;;;;0.10;0.10;;;25.40;56.90;;;;;;4930949;29;20043;-47
2021/09/11 08:16:55;;;;;;;0.10;0.05;;;25.50;56.80;;;;;;4931030;29;20103;-49
2021/09/11 08:19:22;;;;;;;0.20;0.10;;;25.50;56.70;;;;;;4930254;29;20063;-49
2021/09/11 08:21:49;;;;;;;0.13;0.13;;;25.50;56.60;;;;;;4930265;29;20508;-48
2021/09/11 08:24:16;;;;;;;1.38;0.30;;;25.50;56.40;;;;;;4930551;29;20043;-48
2021/09/11 08:26:44;;;;;;;0.08;0.08;;;25.50;56.40;;;;;;4930839;29;20524;-49
2021/09/11 08:29:11;;;;;;;0.35;0.10;;;25.60;56.30;;;;;;4930585;29;20127;-48
2021/09/11 08:31:38;;;;;;;1.45;0.10;;;25.60;56.20;;;;;;4930166;29;20052;-48
2021/09/11 08:34:06;;;;;;;0.45;0.10;;;25.60;56.10;;;;;;4930457;29;20047;-51
2021/09/11 08:36:33;;;;;;;1.23;0.22;;;25.60;55.90;;;;;;4930406;29;20123;-50
2021/09/11 08:39:00;;;;;;;1.00;0.10;;;25.60;55.80;;;;;;4930939;29;20043;-52
2021/09/11 08:41:29;;;;;;;1.85;0.10;;;25.60;55.70;;;;;;4930678;29;20534;-48
2021/09/11 08:43:59;;;;;;;0.65;0.08;;;25.70;55.70;;;;;;4931167;29;20054;-48
2021/09/11 08:46:26;;;;;;;1.00;0.10;;;25.70;55.50;;;;;;4930330;29;20075;-48
2021/09/11 08:48:53;;;;;;;0.10;0.10;;;25.70;55.50;;;;;;4930095;29;20571;-48
2021/09/11 08:51:23;;;;;;;0.50;0.50;;;25.70;55.40;;;;;;4930421;29;20081;-48
2021/09/11 08:53:50;;;;;;;0.30;0.10;;;25.70;55.20;;;;;;4913739;29;20052;-47
2021/09/11 08:56:17;;;;;;;0.20;0.10;;;25.80;55.20;;;;;;4927151;29;20377;-51
2021/09/11 08:58:45;;;;;;;1.63;0.40;;;25.80;55.10;;;;;;4929827;29;20107;-49
2021/09/11 09:01:13;;;;;;;0.45;0.10;;;25.80;55.10;;;;;;4930556;29;20044;-49
2021/09/11 09:03:41;;;;;;;0.73;0.10;;;25.80;55.00;;;;;;4930029;29;20060;-48
2021/09/11 09:06:15;;;;;;;0.20;0.00;;;25.80;54.80;;;;;;4930407;29;20048;-47
2021/09/11 09:08:44;;;;;;;0.40;0.08;;;25.90;54.70;;;;;;4930121;29;20047;-48
2021/09/11 09:11:19;;;;;;;0.85;0.10;;;25.90;54.70;;;;;;4931416;29;20055;-52
2021/09/11 09:13:57;;;;;;;0.10;0.10;;;25.90;54.60;;;;;;4930123;29;20151;-47
2021/09/11 09:16:25;;;;;;;0.73;0.13;;;25.90;54.50;;;;;;4930217;29;20039;-49
2021/09/11 09:18:53;;;;;;;0.15;0.08;;;25.90;54.40;;;;;;4929776;29;20564;-47
2021/09/11 09:21:22;;;;;;;0.10;0.03;;;25.90;54.30;;;;;;4930166;29;20075;-48
2021/09/11 09:23:53;;;;;;;1.08;0.10;;;25.90;54.30;;;;;;4915170;29;20054;-47
2021/09/11 09:26:21;;;;;;;1.27;0.10;;;26.00;54.30;;;;;;4926379;29;20411;-47
2021/09/11 09:29:06;;;;;;;0.20;0.10;;;26.00;54.20;;;;;;4930658;29;20040;-48
2021/09/11 09:31:34;;;;;;;0.03;0.03;;;26.00;54.00;;;;;;4929870;29;20107;-47
2021/09/11 09:34:01;;;;;;;0.17;0.10;;;26.00;54.00;;;;;;4929605;29;20047;-47
2021/09/11 09:36:37;;;;;;;0.38;0.05;;;26.00;53.90;;;;;;4930006;29;20043;-49
2021/09/11 09:39:09;;;;;;;0.08;0.08;;;26.10;53.80;;;;;;4930175;29;20054;-48
2021/09/11 09:41:44;;;;;;;0.20;0.10;;;26.10;53.80;;;;;;4929487;29;20054;-48
2021/09/11 09:44:12;;;;;;;1.85;0.30;;;26.10;53.70;;;;;;4930013;29;20051;-49
2021/09/11 09:46:40;;;;;;;0.10;0.10;;;26.10;53.70;;;;;;4930156;29;20055;-47
2021/09/11 09:49:08;;;;;;;3.65;0.00;;;26.10;53.60;;;;;;4927650;29;20046;-47
2021/09/11 09:51:35;;;;;;;1.25;0.10;;;26.10;53.50;;;;;;4929804;29;20457;-48
2021/09/11 09:54:03;;;;;;;0.28;0.10;;;26.10;53.40;;;;;;4931101;29;20400;-51
2021/09/11 09:56:32;;;;;;;0.32;0.08;;;26.20;53.40;;;;;;4932624;29;20071;-47
2021/09/11 09:59:00;;;;;;;0.30;0.10;;;26.20;53.30;;;;;;4934264;29;20134;-48
2021/09/11 10:01:28;;;;;;;3.13;0.32;;;26.20;53.90;;;;;;4933105;29;20091;-48
2021/09/11 10:03:55;;;;;;;0.40;0.10;;;26.20;53.20;;;;;;4932941;29;20040;-49
2021/09/11 10:06:27;;;;;;;0.40;0.10;;;26.20;53.10;;;;;;4933164;29;20050;-48
2021/09/11 10:08:59;;;;;;;0.00;0.00;;;26.20;53.00;;;;;;4918485;29;20139;-51
2021/09/11 10:11:38;;;;;;;0.10;0.10;;;26.30;53.00;;;;;;4933070;29;20047;-48
2021/09/11 10:14:10;;;;;;;5.32;0.10;;;26.30;52.80;;;;;;4932719;29;20067;-51
2021/09/11 10:16:39;;;;;;;0.40;0.10;;;26.30;52.80;;;;;;4932826;29;20048;-50
2021/09/11 10:19:18;;;;;;;0.38;0.10;;;26.30;52.70;;;;;;4931916;29;20123;-50
2021/09/11 10:21:45;;;;;;;0.22;0.20;;;26.30;52.60;;;;;;4932939;29;20039;-47
2021/09/11 10:24:36;;;;;;;0.90;0.10;;;26.30;52.60;;;;;;4931563;29;20095;-48
2021/09/11 10:27:11;;;;;;;0.75;0.10;;;26.40;52.40;;;;;;4920598;29;20607;-48
2021/09/11 10:29:51;;;;;;;0.13;0.13;;;26.40;52.30;;;;;;4931577;29;20159;-48
2021/09/11 10:32:25;;;;;;;0.00;0.00;;;26.40;52.30;;;;;;4929869;29;20444;-48
2021/09/11 10:34:55;;;;;;;0.55;0.00;;;26.40;52.20;;;;;;4933241;29;20143;-52
2021/09/11 10:37:41;;;;;;;0.10;0.10;;;26.40;52.10;;;;;;4932496;29;20043;-46
2021/09/11 10:40:33;;;;;;;0.52;0.00;;;26.50;52.00;;;;;;4932499;29;20143;-50
2021/09/11 10:43:09;;;;;;;0.32;0.00;;;26.50;52.00;;;;;;4929471;29;20059;-47
2021/09/11 10:45:41;;;;;;;0.15;0.00;;;26.40;51.90;;;;;;4932042;29;20059;-48
2021/09/11 10:48:32;;;;;;;0.10;0.10;;;26.50;51.80;;;;;;4932171;29;20131;-49
2021/09/11 10:51:12;;;;;;;0.10;0.00;;;26.50;51.70;;;;;;4918565;29;20067;-48
2021/09/11 10:53:39;;;;;;;2.67;0.10;;;26.60;51.80;;;;;;4931192;29;20051;-48
2021/09/11 10:56:25;;;;;;;0.60;0.00;;;26.50;51.60;;;;;;4933443;29;20040;-48
2021/09/11 10:59:29;;;;;;;1.88;0.10;;;26.60;51.60;;;;;;4931306;29;20784;-48
2021/09/11 11:02:03;;;;;;;0.57;0.10;;;26.60;51.40;;;;;;4932649;29;20134;-47
2021/09/11 11:04:32;;;;;;;0.00;0.00;;;26.60;51.30;;;;;;4931635;29;20044;-47
2021/09/11 11:07:01;;;;;;;0.57;0.00;;;26.60;51.20;;;;;;4931903;29;20123;-50
2021/09/11 11:09:33;;;;;;;1.98;0.10;;;26.70;51.20;;;;;;4931478;29;20043;-48
2021/09/11 11:12:00;;;;;;;0.95;0.10;;;26.70;51.20;;;;;;4931748;29;20052;-51
2021/09/11 11:14:31;;;;;;;1.15;0.10;;;26.70;51.00;;;;;;4932154;29;20087;-49
2021/09/11 11:17:00;;;;;;;0.10;0.03;;;26.70;51.00;;;;;;4932913;29;20051;-47
2021/09/11 11:19:30;;;;;;;1.20;0.28;;;26.80;51.00;;;;;;4931767;29;20047;-48
2021/09/11 11:22:00;;;;;;;0.22;0.10;;;26.80;50.90;;;;;;4929889;29;20043;-48
2021/09/11 11:24:31;;;;;;;0.10;0.10;;;26.80;50.80;;;;;;4930655;29;20046;-47
2021/09/11 11:27:03;;;;;;;0.10;0.08;;;26.80;50.60;;;;;;4931839;29;20138;-47
2021/09/11 11:29:30;;;;;;;0.75;0.00;;;26.90;50.60;;;;;;4918389;29;20178;-50
2021/09/11 11:32:00;;;;;;;0.15;0.10;;;26.90;50.60;;;;;;4932588;29;20043;-49
2021/09/11 11:34:27;;;;;;;0.10;0.00;;;26.90;50.60;;;;;;4930907;29;20127;-48
2021/09/11 11:36:56;;;;;;;0.00;0.00;;;26.90;50.50;;;;;;4931039;29;20047;-50
2021/09/11 11:39:27;;;;;;;0.10;0.10;;;26.90;50.30;;;;;;4931348;29;20135;-51
2021/09/11 11:41:56;;;;;;;0.00;0.00;;;27.00;50.30;;;;;;4915305;29;20742;-49
2021/09/11 11:44:23;;;;;;;0.00;0.00;;;27.00;50.20;;;;;;4931454;29;20040;-47
2021/09/11 11:46:54;;;;;;;0.30;0.10;;;27.00;50.20;;;;;;4931546;29;20040;-47
2021/09/11 11:49:23;;;;;;;0.10;0.08;;;27.00;50.20;;;;;;4930696;29;20677;-49
2021/09/11 11:51:54;;;;;;;0.20;0.20;;;27.00;50.10;;;;;;4922880;29;20048;-50
2021/09/11 11:54:22;;;;;;;0.38;0.08;;;27.10;50.10;;;;;;4920141;29;20052;-48
2021/09/11 11:56:50;;;;;;;0.45;0.10;;;27.00;50.00;;;;;;4916124;29;20098;-48
2021/09/11 11:59:24;;;;;;;0.10;0.10;;;27.10;50.00;;;;;;4932455;29;20126;-50
2021/09/11 12:01:52;;;;;;;0.10;0.10;;;27.10;49.90;;;;;;4931657;29;20117;-48
2021/09/11 12:04:20;;;;;;;0.63;0.00;;;27.10;49.80;;;;;;4928685;29;20524;-49
2021/09/11 12:06:51;;;;;;;0.77;0.30;;;27.10;49.80;;;;;;4930439;29;20044;-49
2021/09/11 12:09:18;;;;;;;0.22;0.00;;;27.10;49.70;;;;;;4930720;29;20086;-49
2021/09/11 12:11:47;;;;;;;0.70;0.10;;;27.20;49.80;;;;;;4930848;29;20044;-47
2021/09/11 12:14:15;;;;;;;0.05;0.00;;;27.20;49.70;;;;;;4931512;29;20048;-48
2021/09/11 12:16:45;;;;;;;0.00;0.00;;;27.20;49.60;;;;;;4928026;29;20055;-49
2021/09/11 12:19:14;;;;;;;0.00;0.00;;;27.20;49.50;;;;;;4930632;29;20052;-49
2021/09/11 12:21:42;;;;;;;0.10;0.00;;;27.20;49.40;;;;;;4930482;29;20523;-50
2021/09/11 12:24:21;;;;;;;0.32;0.03;;;27.20;49.30;;;;;;4930286;29;20047;-49
2021/09/11 12:26:49;;;;;;;0.10;0.10;;;27.20;49.30;;;;;;4930335;29;20067;-49
2021/09/11 12:29:16;;;;;;;0.38;0.35;;;27.20;49.30;;;;;;4931642;29;20051;-47
2021/09/11 12:31:54;;;;;;;0.95;0.03;;;27.30;49.30;;;;;;4930296;29;20427;-49
2021/09/11 12:34:21;;;;;;;0.68;0.30;;;27.30;49.10;;;;;;4929698;29;20052;-47
2021/09/11 12:36:50;;;;;;;0.10;0.10;;;27.30;49.20;;;;;;4930017;29;20513;-48
2021/09/11 12:39:30;;;;;;;0.85;0.10;;;27.30;49.10;;;;;;4930338;29;20052;-46
2021/09/11 12:41:59;;;;;;;0.10;0.10;;;27.30;49.00;;;;;;4914914;29;20043;-49
2021/09/11 12:44:30;;;;;;;0.32;0.10;;;27.30;49.00;;;;;;4930167;29;20044;-50
2021/09/11 12:47:03;;;;;;;0.82;0.10;;;27.30;49.00;;;;;;4931302;29;20481;-51
2021/09/11 12:49:31;;;;;;;0.40;0.10;;;27.30;48.90;;;;;;4929914;29;20111;-47
2021/09/11 12:51:59;;;;;;;0.05;0.00;;;27.30;48.90;;;;;;4930061;29;20358;-47